Time;durP1;ratioP1;P1;durP2;ratioP2;P2;SDS_P1;SDS_P2;PMS_P1;PMS_P2;Temp;Humidity;BMP_temperature;BMP_pressure;BME280_temperature;BME280_humidity;BME280_pressure;Samples;Min_cycle;Max_cycle;Signal;HPM_P1;HPM_P2
2023/01/31 00:01:57;;;;;;;0.38;0.38;;;;;;;;;;5072827;28;20048;-76
2023/01/31 00:04:25;;;;;;;0.95;0.45;;;;;;;;;;5071563;28;20107;-77
2023/01/31 00:06:54;;;;;;;1.50;0.80;;;;;;;;;;5072364;28;20098;-77
2023/01/31 00:09:22;;;;;;;0.50;0.50;;;;;;;;;;5074395;28;20049;-78
2023/01/31 00:11:50;;;;;;;0.40;0.40;;;;;;;;;;5076122;28;20044;-75
2023/01/31 00:14:20;;;;;;;0.43;0.43;;;;;;;;;;5078151;28;20064;-76
2023/01/31 00:16:51;;;;;;;3.50;0.60;;;;;;;;;;5070075;28;20049;-75
2023/01/31 00:19:19;;;;;;;0.73;0.47;;;;;;;;;;5073252;28;20492;-75
2023/01/31 00:21:47;;;;;;;1.15;0.93;;;;;;;;;;5072774;28;20047;-75
2023/01/31 00:24:16;;;;;;;0.82;0.82;;;;;;;;;;5071319;28;20040;-75
2023/01/31 00:26:44;;;;;;;1.40;0.70;;;;;;;;;;5071135;28;20044;-74
2023/01/31 00:29:12;;;;;;;0.55;0.55;;;;;;;;;;5068228;28;20401;-76
2023/01/31 00:31:40;;;;;;;0.70;0.65;;;;;;;;;;5071303;28;20049;-77
2023/01/31 00:34:11;;;;;;;1.17;1.08;;;;;;;;;;5070687;28;20055;-76
2023/01/31 00:36:40;;;;;;;0.43;0.43;;;;;;;;;;5062315;28;20040;-75
2023/01/31 00:39:08;;;;;;;2.10;1.88;;;;;;;;;;5075094;28;20043;-75
2023/01/31 00:41:37;;;;;;;1.17;0.45;;;;;;;;;;5068387;28;20075;-76
2023/01/31 00:44:07;;;;;;;1.30;1.23;;;;;;;;;;5074874;28;20059;-76
2023/01/31 00:46:35;;;;;;;1.90;1.13;;;;;;;;;;5066433;28;20063;-76
2023/01/31 00:49:04;;;;;;;0.73;0.73;;;;;;;;;;5068024;28;20056;-76
2023/01/31 00:51:34;;;;;;;0.45;0.43;;;;;;;;;;5070832;28;20057;-76
2023/01/31 00:54:03;;;;;;;1.35;1.25;;;;;;;;;;5073631;28;20053;-76
2023/01/31 00:56:31;;;;;;;2.30;1.15;;;;;;;;;;5071681;28;20047;-76
2023/01/31 00:58:59;;;;;;;0.32;0.32;;;;;;;;;;5069641;28;20048;-78
2023/01/31 01:01:28;;;;;;;0.85;0.82;;;;;;;;;;5070751;28;20041;-76
2023/01/31 01:03:57;;;;;;;1.05;0.60;;;;;;;;;;5080199;28;20044;-74
2023/01/31 01:06:26;;;;;;;1.88;1.00;;;;;;;;;;5078390;28;20052;-76
2023/01/31 01:08:56;;;;;;;1.30;1.15;;;;;;;;;;5071182;28;20401;-76
2023/01/31 01:11:26;;;;;;;1.27;1.05;;;;;;;;;;5071442;28;20040;-76
2023/01/31 01:13:55;;;;;;;0.95;0.80;;;;;;;;;;5073655;28;20127;-75
2023/01/31 01:16:24;;;;;;;1.05;0.95;;;;;;;;;;5068739;28;20579;-75
2023/01/31 01:18:53;;;;;;;0.55;0.55;;;;;;;;;;5071490;28;20123;-76
2023/01/31 01:21:23;;;;;;;3.13;0.75;;;;;;;;;;5073806;28;20144;-78
2023/01/31 01:23:51;;;;;;;0.65;0.65;;;;;;;;;;5067558;28;20066;-77
2023/01/31 01:26:23;;;;;;;0.45;0.30;;;;;;;;;;5070903;28;20062;-76
2023/01/31 01:28:52;;;;;;;0.45;0.45;;;;;;;;;;5087314;28;20131;-75
2023/01/31 01:31:21;;;;;;;4.38;1.90;;;;;;;;;;5068355;28;20289;-76
2023/01/31 01:33:50;;;;;;;0.82;0.55;;;;;;;;;;5074747;28;20048;-76
2023/01/31 01:36:20;;;;;;;2.95;1.33;;;;;;;;;;5073436;28;20040;-77
2023/01/31 01:38:49;;;;;;;1.10;1.10;;;;;;;;;;5080671;28;20540;-76
2023/01/31 01:41:18;;;;;;;1.35;0.80;;;;;;;;;;5066892;28;20041;-75
2023/01/31 01:43:49;;;;;;;2.53;1.10;;;;;;;;;;5074392;28;20143;-76
2023/01/31 01:46:19;;;;;;;0.52;0.52;;;;;;;;;;5079636;28;20143;-75
2023/01/31 01:48:49;;;;;;;1.08;0.80;;;;;;;;;;5076493;28;20059;-76
2023/01/31 01:51:19;;;;;;;3.40;1.13;;;;;;;;;;5072630;28;20055;-76
2023/01/31 01:53:49;;;;;;;0.47;0.47;;;;;;;;;;5072841;28;20048;-76
2023/01/31 01:56:19;;;;;;;0.50;0.50;;;;;;;;;;5075442;28;20102;-76
2023/01/31 01:58:50;;;;;;;1.60;1.05;;;;;;;;;;5072767;28;20057;-77
2023/01/31 02:01:19;;;;;;;0.88;0.70;;;;;;;;;;5069802;28;20048;-76
2023/01/31 02:03:48;;;;;;;0.60;0.60;;;;;;;;;;5074527;28;20070;-76
2023/01/31 02:06:16;;;;;;;2.10;1.92;;;;;;;;;;5078072;28;20493;-76
2023/01/31 02:08:45;;;;;;;1.42;0.63;;;;;;;;;;5080039;28;20063;-77
2023/01/31 02:11:18;;;;;;;2.30;0.70;;;;;;;;;;5075676;28;20044;-76
2023/01/31 02:13:47;;;;;;;0.40;0.40;;;;;;;;;;5080607;28;20110;-78
2023/01/31 02:16:17;;;;;;;0.40;0.40;;;;;;;;;;5069189;28;20060;-76
2023/01/31 02:18:46;;;;;;;2.42;1.00;;;;;;;;;;5083103;28;20044;-76
2023/01/31 02:21:24;;;;;;;1.27;0.93;;;;;;;;;;5075080;28;20484;-76
2023/01/31 02:24:01;;;;;;;0.50;0.50;;;;;;;;;;5078085;28;20070;-77
2023/01/31 02:26:48;;;;;;;1.45;1.35;;;;;;;;;;5069176;28;20052;-75
2023/01/31 02:29:35;;;;;;;1.67;0.95;;;;;;;;;;5079796;28;20078;-77
2023/01/31 02:32:17;;;;;;;3.38;2.05;;;;;;;;;;5067879;28;20060;-76
2023/01/31 02:34:51;;;;;;;2.92;1.02;;;;;;;;;;5073747;28;20059;-74
2023/01/31 02:37:29;;;;;;;1.10;1.00;;;;;;;;;;5083563;28;20044;-76
2023/01/31 02:40:02;;;;;;;2.22;1.05;;;;;;;;;;5072157;28;20051;-76
2023/01/31 02:42:35;;;;;;;1.05;1.00;;;;;;;;;;5074587;28;20151;-75
2023/01/31 02:45:06;;;;;;;1.60;1.05;;;;;;;;;;5069513;28;20049;-76
2023/01/31 02:47:42;;;;;;;2.03;1.42;;;;;;;;;;5070409;28;20043;-77
2023/01/31 02:50:13;;;;;;;0.77;0.77;;;;;;;;;;5073082;28;20044;-75
2023/01/31 02:52:46;;;;;;;0.50;0.50;;;;;;;;;;5080398;28;20056;-76
2023/01/31 02:58:04;;;;;;;1.30;0.60;;;;;;;;;;5070005;28;20187;-75
2023/01/31 03:00:34;;;;;;;1.38;0.75;;;;;;;;;;5071144;28;20051;-76
2023/01/31 03:03:04;;;;;;;1.13;1.13;;;;;;;;;;5063695;28;20419;-77
2023/01/31 03:05:33;;;;;;;0.77;0.68;;;;;;;;;;5073588;28;20480;-76
2023/01/31 03:08:03;;;;;;;2.15;1.00;;;;;;;;;;5077017;28;20048;-76
2023/01/31 03:10:45;;;;;;;0.52;0.45;;;;;;;;;;5079453;28;20051;-76
2023/01/31 03:13:21;;;;;;;6.55;0.73;;;;;;;;;;5081549;28;20049;-76
2023/01/31 03:18:44;;;;;;;2.15;1.58;;;;;;;;;;5063236;28;20046;-76
2023/01/31 03:21:14;;;;;;;0.60;0.60;;;;;;;;;;5075816;28;20056;-75
2023/01/31 03:23:46;;;;;;;2.78;0.80;;;;;;;;;;5072524;28;20052;-76
2023/01/31 03:26:14;;;;;;;0.52;0.52;;;;;;;;;;5070856;28;20159;-76
2023/01/31 03:28:43;;;;;;;1.15;1.05;;;;;;;;;;5066455;28;20404;-76
2023/01/31 03:31:17;;;;;;;2.25;1.23;;;;;;;;;;5069543;28;20048;-76
2023/01/31 03:33:49;;;;;;;1.97;0.40;;;;;;;;;;5072612;28;20491;-76
2023/01/31 03:36:21;;;;;;;3.03;1.20;;;;;;;;;;5070408;28;20049;-76
2023/01/31 03:38:52;;;;;;;0.93;0.52;;;;;;;;;;5074830;28;20390;-76
2023/01/31 03:41:24;;;;;;;0.63;0.63;;;;;;;;;;5077564;28;20056;-76
2023/01/31 03:43:57;;;;;;;0.57;0.57;;;;;;;;;;5068634;28;20083;-76
2023/01/31 03:46:28;;;;;;;1.80;1.08;;;;;;;;;;5068087;28;20048;-76
2023/01/31 03:48:58;;;;;;;1.95;1.52;;;;;;;;;;5072638;28;20071;-76
2023/01/31 03:51:29;;;;;;;0.73;0.73;;;;;;;;;;5074108;28;20056;-77
2023/01/31 03:54:06;;;;;;;0.50;0.50;;;;;;;;;;5072997;28;20057;-76
2023/01/31 03:56:37;;;;;;;1.77;1.67;;;;;;;;;;5074675;28;20052;-76
2023/01/31 03:59:08;;;;;;;0.90;0.90;;;;;;;;;;5072469;28;20052;-77
2023/01/31 04:01:41;;;;;;;2.17;1.23;;;;;;;;;;5072190;28;20413;-76
2023/01/31 04:04:12;;;;;;;0.50;0.50;;;;;;;;;;5070067;28;20060;-78
2023/01/31 04:06:41;;;;;;;0.60;0.60;;;;;;;;;;5074750;28;20393;-77
2023/01/31 04:09:09;;;;;;;3.58;1.35;;;;;;;;;;5076285;28;20055;-76
2023/01/31 04:11:38;;;;;;;0.40;0.40;;;;;;;;;;5071443;28;20055;-76
2023/01/31 04:14:07;;;;;;;1.55;1.08;;;;;;;;;;5077863;28;20044;-75
2023/01/31 04:16:35;;;;;;;2.00;0.88;;;;;;;;;;5073717;28;20055;-76
2023/01/31 04:19:04;;;;;;;4.55;1.67;;;;;;;;;;5070213;28;20044;-76
2023/01/31 04:21:34;;;;;;;1.40;1.30;;;;;;;;;;5064117;28;20545;-75
2023/01/31 04:24:02;;;;;;;1.63;1.23;;;;;;;;;;5071699;28;20076;-76
2023/01/31 04:26:30;;;;;;;0.65;0.65;;;;;;;;;;5069239;28;20461;-76
2023/01/31 04:28:59;;;;;;;1.70;1.58;;;;;;;;;;5087217;28;20056;-76
2023/01/31 04:31:27;;;;;;;0.45;0.45;;;;;;;;;;5066627;28;20043;-75
2023/01/31 04:33:56;;;;;;;0.98;0.90;;;;;;;;;;5073515;28;20044;-76
2023/01/31 04:36:25;;;;;;;6.63;1.55;;;;;;;;;;5069487;28;20052;-76
2023/01/31 04:38:54;;;;;;;0.73;0.73;;;;;;;;;;5070959;28;20045;-77
2023/01/31 04:41:23;;;;;;;0.50;0.50;;;;;;;;;;5072835;28;20047;-75
2023/01/31 04:43:51;;;;;;;0.32;0.30;;;;;;;;;;5074569;28;20055;-76
2023/01/31 04:46:19;;;;;;;5.28;0.93;;;;;;;;;;5071638;28;20067;-77
2023/01/31 04:48:48;;;;;;;1.77;0.60;;;;;;;;;;5074280;28;20060;-76
2023/01/31 04:51:16;;;;;;;5.13;1.63;;;;;;;;;;5070156;28;20047;-76
2023/01/31 04:53:44;;;;;;;1.75;0.82;;;;;;;;;;5074022;28;20056;-76
2023/01/31 04:56:14;;;;;;;1.92;1.27;;;;;;;;;;5070437;28;20047;-78
2023/01/31 04:58:43;;;;;;;2.28;2.03;;;;;;;;;;5070462;28;20056;-75
2023/01/31 05:01:11;;;;;;;0.95;0.68;;;;;;;;;;5068377;28;20049;-76
2023/01/31 05:03:39;;;;;;;0.63;0.63;;;;;;;;;;5079448;28;20052;-77
2023/01/31 05:06:08;;;;;;;0.95;0.90;;;;;;;;;;5084184;28;20037;-77
2023/01/31 05:08:36;;;;;;;0.50;0.50;;;;;;;;;;5071099;28;20048;-76
2023/01/31 05:11:05;;;;;;;1.13;0.80;;;;;;;;;;5074334;28;20045;-77
2023/01/31 05:13:37;;;;;;;1.27;0.50;;;;;;;;;;5073925;28;20404;-76
2023/01/31 05:16:06;;;;;;;0.82;0.77;;;;;;;;;;5068964;28;20040;-76
2023/01/31 05:18:35;;;;;;;0.57;0.57;;;;;;;;;;5066166;28;20129;-74
2023/01/31 05:21:03;;;;;;;0.98;0.73;;;;;;;;;;5073487;28;20049;-73
2023/01/31 05:23:32;;;;;;;3.05;1.55;;;;;;;;;;5072769;28;20055;-76
2023/01/31 05:26:01;;;;;;;0.95;0.85;;;;;;;;;;5069438;28;20512;-76
2023/01/31 05:28:29;;;;;;;1.77;1.20;;;;;;;;;;5070427;28;20056;-77
2023/01/31 05:31:03;;;;;;;0.85;0.75;;;;;;;;;;5066261;28;20037;-77
2023/01/31 05:33:32;;;;;;;1.10;1.00;;;;;;;;;;5068233;28;20045;-76
2023/01/31 05:36:01;;;;;;;3.63;0.85;;;;;;;;;;5065058;28;20051;-76
2023/01/31 05:38:30;;;;;;;0.82;0.82;;;;;;;;;;5069884;28;20492;-75
2023/01/31 05:40:59;;;;;;;1.60;1.02;;;;;;;;;;5063652;28;20563;-76
2023/01/31 05:43:27;;;;;;;0.68;0.68;;;;;;;;;;5074279;28;20055;-75
2023/01/31 05:45:55;;;;;;;0.50;0.50;;;;;;;;;;5062392;28;20048;-74
2023/01/31 05:48:25;;;;;;;1.40;0.80;;;;;;;;;;5067090;28;20067;-76
2023/01/31 05:50:53;;;;;;;0.70;0.70;;;;;;;;;;5064635;28;20485;-74
2023/01/31 05:53:22;;;;;;;0.30;0.30;;;;;;;;;;5062637;28;20048;-74
2023/01/31 05:55:50;;;;;;;0.60;0.60;;;;;;;;;;5074955;28;20056;-74
2023/01/31 05:58:19;;;;;;;1.52;1.20;;;;;;;;;;5068643;28;20501;-76
2023/01/31 06:00:47;;;;;;;1.17;0.60;;;;;;;;;;5070315;28;20095;-75
2023/01/31 06:03:16;;;;;;;1.05;1.05;;;;;;;;;;5070417;28;20504;-74
2023/01/31 06:05:45;;;;;;;2.90;0.73;;;;;;;;;;5069002;28;20060;-75
2023/01/31 06:08:14;;;;;;;0.93;0.60;;;;;;;;;;5069376;28;20060;-73
2023/01/31 06:10:42;;;;;;;1.48;1.38;;;;;;;;;;5069216;28;20131;-77
2023/01/31 06:13:11;;;;;;;0.82;0.82;;;;;;;;;;5067536;28;20043;-76
2023/01/31 06:15:43;;;;;;;0.30;0.30;;;;;;;;;;5066537;28;20128;-76
2023/01/31 06:18:12;;;;;;;0.93;0.63;;;;;;;;;;5068247;28;20056;-76
2023/01/31 06:20:40;;;;;;;0.85;0.68;;;;;;;;;;5071439;28;20052;-75
2023/01/31 06:23:10;;;;;;;0.98;0.90;;;;;;;;;;5067635;28;20049;-75
2023/01/31 06:25:38;;;;;;;0.30;0.30;;;;;;;;;;5068304;28;20048;-74
2023/01/31 06:28:06;;;;;;;0.57;0.57;;;;;;;;;;5071210;28;20128;-74
2023/01/31 06:30:35;;;;;;;1.13;1.02;;;;;;;;;;5068365;28;20455;-74
2023/01/31 06:33:03;;;;;;;0.45;0.45;;;;;;;;;;5071738;28;20464;-74
2023/01/31 06:35:32;;;;;;;2.45;1.17;;;;;;;;;;5072923;28;20523;-74
2023/01/31 06:38:01;;;;;;;0.60;0.60;;;;;;;;;;5070643;28;20049;-74
2023/01/31 06:40:30;;;;;;;0.43;0.30;;;;;;;;;;5071578;28;20049;-75
2023/01/31 06:42:59;;;;;;;0.68;0.63;;;;;;;;;;5063872;28;20493;-73
2023/01/31 06:45:27;;;;;;;0.32;0.32;;;;;;;;;;5070617;28;20052;-74
2023/01/31 06:47:55;;;;;;;0.85;0.68;;;;;;;;;;5077960;28;20048;-74
2023/01/31 06:50:24;;;;;;;0.28;0.28;;;;;;;;;;5084296;28;20044;-74
2023/01/31 06:52:52;;;;;;;0.70;0.70;;;;;;;;;;5065739;28;20132;-74
2023/01/31 06:55:20;;;;;;;1.20;0.93;;;;;;;;;;5072599;28;20071;-74
2023/01/31 06:57:50;;;;;;;1.73;0.75;;;;;;;;;;5079325;28;20587;-75
2023/01/31 07:00:19;;;;;;;0.75;0.75;;;;;;;;;;5075747;28;20059;-75
2023/01/31 07:02:47;;;;;;;0.88;0.47;;;;;;;;;;5070910;28;20482;-74
2023/01/31 07:05:16;;;;;;;1.42;0.55;;;;;;;;;;5069530;28;20044;-75
2023/01/31 07:07:44;;;;;;;0.30;0.30;;;;;;;;;;5069404;28;20079;-74
2023/01/31 07:10:13;;;;;;;1.48;1.38;;;;;;;;;;5081591;28;20080;-75
2023/01/31 07:12:41;;;;;;;0.80;0.80;;;;;;;;;;5069932;28;20041;-75
2023/01/31 07:15:11;;;;;;;1.17;0.65;;;;;;;;;;5071909;28;20076;-74
2023/01/31 07:17:40;;;;;;;0.60;0.60;;;;;;;;;;5070451;28;20370;-75
2023/01/31 07:20:09;;;;;;;0.52;0.52;;;;;;;;;;5074268;28;20139;-75
2023/01/31 07:22:37;;;;;;;1.25;0.75;;;;;;;;;;5069482;28;20129;-76
2023/01/31 07:25:06;;;;;;;3.30;1.23;;;;;;;;;;5070036;28;20079;-75
2023/01/31 07:27:34;;;;;;;0.50;0.50;;;;;;;;;;5070144;28;20048;-75
2023/01/31 07:30:03;;;;;;;0.50;0.50;;;;;;;;;;5070248;28;20074;-75
2023/01/31 07:32:33;;;;;;;0.70;0.70;;;;;;;;;;5079438;28;20135;-76
2023/01/31 07:35:01;;;;;;;0.85;0.70;;;;;;;;;;5073755;28;20055;-75
2023/01/31 07:37:29;;;;;;;0.40;0.40;;;;;;;;;;5073031;28;20055;-76
2023/01/31 07:39:58;;;;;;;1.08;0.82;;;;;;;;;;5072508;28;20135;-75
2023/01/31 07:42:26;;;;;;;1.95;1.50;;;;;;;;;;5079907;28;20051;-75
2023/01/31 07:44:55;;;;;;;0.32;0.32;;;;;;;;;;5072584;28;20090;-75
2023/01/31 07:47:23;;;;;;;1.15;0.73;;;;;;;;;;5081689;28;20412;-75
2023/01/31 07:49:53;;;;;;;0.43;0.43;;;;;;;;;;5079313;28;20063;-74
2023/01/31 07:52:21;;;;;;;3.25;0.60;;;;;;;;;;5074015;28;20508;-75
2023/01/31 07:54:49;;;;;;;0.63;0.63;;;;;;;;;;5074107;28;20048;-75
2023/01/31 07:57:18;;;;;;;1.65;1.17;;;;;;;;;;5083754;28;20054;-76
2023/01/31 07:59:46;;;;;;;0.50;0.50;;;;;;;;;;5080927;28;20048;-75
2023/01/31 08:05:03;;;;;;;0.20;0.20;;;;;;;;;;5073266;28;20447;-75
2023/01/31 08:07:32;;;;;;;0.35;0.35;;;;;;;;;;5073454;28;20105;-76
2023/01/31 08:10:00;;;;;;;2.15;0.65;;;;;;;;;;5062312;28;20080;-76
2023/01/31 08:12:29;;;;;;;1.33;1.23;;;;;;;;;;5072783;28;20044;-75
2023/01/31 08:14:57;;;;;;;0.90;0.82;;;;;;;;;;5068528;28;20064;-75
2023/01/31 08:17:26;;;;;;;0.82;0.82;;;;;;;;;;5072617;28;20103;-75
2023/01/31 08:19:54;;;;;;;2.40;0.80;;;;;;;;;;5080631;28;20055;-76
2023/01/31 08:22:24;;;;;;;0.75;0.57;;;;;;;;;;5073817;28;20051;-75
2023/01/31 08:24:52;;;;;;;3.03;1.25;;;;;;;;;;5067898;28;20045;-77
2023/01/31 08:27:21;;;;;;;0.60;0.60;;;;;;;;;;5071782;28;20484;-77
2023/01/31 08:29:50;;;;;;;0.45;0.45;;;;;;;;;;5077361;28;20078;-76
2023/01/31 08:32:18;;;;;;;0.45;0.40;;;;;;;;;;5071646;28;20566;-76
2023/01/31 08:34:48;;;;;;;2.33;1.67;;;;;;;;;;5077849;28;20052;-77
2023/01/31 08:37:16;;;;;;;0.63;0.40;;;;;;;;;;5075897;28;20045;-76
2023/01/31 08:39:47;;;;;;;0.80;0.75;;;;;;;;;;5071662;28;20513;-76
2023/01/31 08:42:16;;;;;;;0.47;0.47;;;;;;;;;;5063776;28;20060;-76
2023/01/31 08:44:44;;;;;;;2.63;0.68;;;;;;;;;;5063739;28;20044;-75
2023/01/31 08:47:13;;;;;;;1.77;1.42;;;;;;;;;;5073067;28;20048;-76
2023/01/31 08:49:41;;;;;;;0.63;0.63;;;;;;;;;;5073614;28;20087;-75
2023/01/31 08:52:09;;;;;;;0.40;0.40;;;;;;;;;;5071768;28;20124;-76
2023/01/31 08:54:38;;;;;;;0.70;0.60;;;;;;;;;;5071582;28;20051;-76
2023/01/31 08:57:08;;;;;;;0.38;0.38;;;;;;;;;;5076069;28;20055;-76
2023/01/31 08:59:36;;;;;;;0.30;0.30;;;;;;;;;;5071904;28;20075;-75
2023/01/31 09:02:05;;;;;;;0.30;0.30;;;;;;;;;;5069407;28;20497;-77
2023/01/31 09:04:33;;;;;;;0.47;0.40;;;;;;;;;;5065652;28;20509;-76
2023/01/31 09:07:02;;;;;;;0.57;0.52;;;;;;;;;;5071091;28;20131;-76
2023/01/31 09:09:31;;;;;;;2.72;0.80;;;;;;;;;;5065858;28;20147;-76
2023/01/31 09:12:00;;;;;;;0.38;0.38;;;;;;;;;;5072151;28;20048;-76
2023/01/31 09:14:30;;;;;;;0.38;0.25;;;;;;;;;;5069604;28;20090;-75
2023/01/31 09:16:59;;;;;;;1.17;1.08;;;;;;;;;;5075331;28;20047;-75
2023/01/31 09:19:28;;;;;;;2.83;0.98;;;;;;;;;;5065573;28;20049;-75
2023/01/31 09:21:57;;;;;;;1.30;1.05;;;;;;;;;;5069889;28;20086;-76
2023/01/31 09:24:25;;;;;;;1.10;1.00;;;;;;;;;;5062781;28;20072;-76
2023/01/31 09:26:55;;;;;;;0.63;0.63;;;;;;;;;;5076316;28;20053;-76
2023/01/31 09:29:24;;;;;;;0.43;0.43;;;;;;;;;;5073891;28;20127;-76
2023/01/31 09:31:54;;;;;;;0.20;0.20;;;;;;;;;;5072309;28;20144;-75
2023/01/31 09:34:23;;;;;;;1.60;1.35;;;;;;;;;;5069569;28;20056;-76
2023/01/31 09:36:53;;;;;;;0.30;0.30;;;;;;;;;;5074894;28;20052;-75
2023/01/31 09:39:21;;;;;;;1.67;1.58;;;;;;;;;;5070019;28;20076;-76
2023/01/31 09:41:52;;;;;;;2.15;0.73;;;;;;;;;;5066902;28;20135;-75
2023/01/31 09:44:22;;;;;;;1.23;1.15;;;;;;;;;;5071664;28;20072;-75
2023/01/31 09:46:55;;;;;;;5.47;1.55;;;;;;;;;;5075250;28;20124;-76
2023/01/31 09:49:30;;;;;;;2.15;1.20;;;;;;;;;;5069205;28;20072;-75
2023/01/31 09:51:58;;;;;;;;;;;;;;;;;;5072835;28;20060;-75
2023/01/31 09:54:28;;;;;;;8.40;0.95;;;;;;;;;;5080841;28;20296;-75
2023/01/31 09:57:01;;;;;;;2.60;0.55;;;;;;;;;;5074680;28;20051;-75
2023/01/31 09:59:33;;;;;;;0.20;0.20;;;;;;;;;;5072085;28;20098;-76
2023/01/31 10:02:07;;;;;;;1.65;1.15;;;;;;;;;;5080066;28;20067;-75
2023/01/31 10:04:44;;;;;;;0.68;0.28;;;;;;;;;;5078417;28;20457;-74
2023/01/31 10:07:15;;;;;;;0.63;0.63;;;;;;;;;;5076019;28;20095;-75
2023/01/31 10:09:46;;;;;;;0.80;0.68;;;;;;;;;;5074619;28;20509;-74
2023/01/31 10:12:16;;;;;;;1.27;0.73;;;;;;;;;;5072733;28;20428;-75
2023/01/31 10:14:49;;;;;;;0.40;0.40;;;;;;;;;;5079412;28;20466;-77
2023/01/31 10:17:19;;;;;;;1.38;0.73;;;;;;;;;;5070549;28;20068;-76
2023/01/31 10:19:51;;;;;;;0.20;0.20;;;;;;;;;;5072877;28;20443;-75
2023/01/31 10:22:22;;;;;;;6.63;0.47;;;;;;;;;;5072382;28;20045;-76
2023/01/31 10:24:55;;;;;;;0.30;0.30;;;;;;;;;;5073563;28;20512;-75
2023/01/31 10:27:32;;;;;;;0.40;0.40;;;;;;;;;;5072360;28;20058;-75
2023/01/31 10:30:03;;;;;;;2.53;2.08;;;;;;;;;;5073752;28;20057;-74
2023/01/31 10:32:34;;;;;;;0.85;0.40;;;;;;;;;;5071735;28;20496;-73
2023/01/31 10:35:10;;;;;;;0.55;0.55;;;;;;;;;;5070714;28;20056;-72
2023/01/31 10:37:41;;;;;;;0.55;0.55;;;;;;;;;;5077312;28;20497;-73
2023/01/31 10:40:15;;;;;;;0.38;0.38;;;;;;;;;;5077391;28;20507;-73
2023/01/31 10:42:46;;;;;;;0.60;0.60;;;;;;;;;;5070620;28;20506;-72
2023/01/31 10:45:17;;;;;;;1.05;0.40;;;;;;;;;;5073071;28;20055;-73
2023/01/31 10:47:49;;;;;;;0.40;0.40;;;;;;;;;;5072098;28;20056;-72
2023/01/31 10:50:20;;;;;;;1.63;0.70;;;;;;;;;;5081147;28;20059;-73
2023/01/31 10:52:53;;;;;;;0.90;0.75;;;;;;;;;;5070858;28;20056;-73
2023/01/31 10:55:34;;;;;;;0.47;0.47;;;;;;;;;;5079709;28;20135;-73
2023/01/31 10:58:03;;;;;;;11.88;0.98;;;;;;;;;;5071837;28;20301;-72
2023/01/31 11:00:33;;;;;;;0.68;0.68;;;;;;;;;;5073258;28;20048;-72
2023/01/31 11:03:02;;;;;;;0.47;0.47;;;;;;;;;;5074020;28;20052;-72
2023/01/31 11:05:31;;;;;;;0.35;0.35;;;;;;;;;;5075250;28;20123;-73
2023/01/31 11:08:01;;;;;;;0.68;0.68;;;;;;;;;;5074091;28;20044;-71
2023/01/31 11:10:31;;;;;;;0.28;0.28;;;;;;;;;;5077267;28;20152;-72
2023/01/31 11:13:00;;;;;;;0.30;0.30;;;;;;;;;;5069659;28;20070;-73
2023/01/31 11:15:30;;;;;;;2.50;1.58;;;;;;;;;;5067912;28;20147;-73
2023/01/31 11:18:00;;;;;;;3.55;1.70;;;;;;;;;;5074634;28;20044;-74
2023/01/31 11:20:29;;;;;;;1.40;0.90;;;;;;;;;;5067075;28;20047;-73
2023/01/31 11:23:00;;;;;;;0.30;0.22;;;;;;;;;;5072181;28;20106;-73
2023/01/31 11:25:29;;;;;;;2.67;0.82;;;;;;;;;;5070467;28;20053;-73
2023/01/31 11:27:59;;;;;;;1.75;0.57;;;;;;;;;;5078784;28;20060;-73
2023/01/31 11:30:29;;;;;;;0.88;0.80;;;;;;;;;;5071989;28;20044;-72
2023/01/31 11:32:57;;;;;;;0.75;0.75;;;;;;;;;;5072559;28;20048;-72
2023/01/31 11:35:27;;;;;;;0.75;0.55;;;;;;;;;;5071573;28;20047;-73
2023/01/31 11:37:57;;;;;;;1.75;0.50;;;;;;;;;;5070742;28;20057;-72
2023/01/31 11:40:31;;;;;;;13.88;1.75;;;;;;;;;;5082794;28;20135;-73
2023/01/31 11:43:00;;;;;;;1.75;1.13;;;;;;;;;;5068507;28;20127;-74
2023/01/31 11:45:31;;;;;;;1.30;0.90;;;;;;;;;;5072240;28;20406;-72
2023/01/31 11:48:00;;;;;;;0.50;0.50;;;;;;;;;;5073575;28;20111;-73
2023/01/31 11:50:33;;;;;;;0.45;0.45;;;;;;;;;;5071469;28;20568;-72
2023/01/31 11:53:02;;;;;;;0.32;0.32;;;;;;;;;;5066775;28;20087;-73
2023/01/31 11:55:37;;;;;;;0.40;0.40;;;;;;;;;;5074717;28;20122;-73
2023/01/31 11:58:10;;;;;;;2.08;0.65;;;;;;;;;;5079055;28;20127;-71
2023/01/31 12:00:38;;;;;;;0.82;0.82;;;;;;;;;;5068927;28;20129;-74
2023/01/31 12:03:08;;;;;;;1.00;0.40;;;;;;;;;;5071219;28;20129;-73
2023/01/31 12:05:38;;;;;;;1.55;1.25;;;;;;;;;;5065830;28;20119;-75
2023/01/31 12:08:06;;;;;;;2.55;1.15;;;;;;;;;;5077104;28;20063;-73
2023/01/31 12:10:42;;;;;;;1.00;0.38;;;;;;;;;;5069095;28;20041;-73
2023/01/31 12:13:14;;;;;;;0.50;0.50;;;;;;;;;;5073641;28;20052;-74
2023/01/31 12:15:54;;;;;;;1.95;1.08;;;;;;;;;;5077975;28;20045;-72
2023/01/31 12:18:44;;;;;;;0.30;0.30;;;;;;;;;;5071246;28;20048;-73
2023/01/31 12:21:14;;;;;;;1.40;1.30;;;;;;;;;;5073103;28;20056;-71
2023/01/31 12:23:50;;;;;;;0.57;0.40;;;;;;;;;;5075704;28;20555;-74
2023/01/31 12:26:24;;;;;;;1.77;1.02;;;;;;;;;;5071412;28;20052;-71
2023/01/31 12:29:01;;;;;;;0.55;0.55;;;;;;;;;;5079632;28;20051;-73
2023/01/31 12:31:36;;;;;;;0.98;0.80;;;;;;;;;;5071906;28;20087;-72
2023/01/31 12:34:13;;;;;;;0.75;0.50;;;;;;;;;;5068254;28;20040;-74
2023/01/31 12:36:47;;;;;;;0.93;0.60;;;;;;;;;;5067699;28;20399;-71
2023/01/31 12:39:23;;;;;;;0.93;0.75;;;;;;;;;;5072812;28;20044;-71
2023/01/31 12:41:59;;;;;;;1.52;0.70;;;;;;;;;;5069042;28;20597;-71
2023/01/31 12:44:37;;;;;;;1.52;1.42;;;;;;;;;;5073167;28;20040;-73
2023/01/31 12:47:15;;;;;;;0.90;0.55;;;;;;;;;;5068846;28;20123;-74
2023/01/31 12:49:58;;;;;;;1.67;0.85;;;;;;;;;;5075602;28;20055;-72
2023/01/31 12:52:29;;;;;;;1.35;0.52;;;;;;;;;;5065040;28;20447;-73
2023/01/31 12:55:13;;;;;;;0.57;0.55;;;;;;;;;;5070362;28;20040;-71
2023/01/31 12:57:50;;;;;;;0.70;0.50;;;;;;;;;;5076891;28;20052;-72
2023/01/31 13:00:32;;;;;;;1.05;0.63;;;;;;;;;;5069426;28;20052;-72
2023/01/31 13:03:14;;;;;;;4.38;0.93;;;;;;;;;;5070026;28;20048;-72
2023/01/31 13:05:45;;;;;;;0.43;0.43;;;;;;;;;;5078540;28;20040;-72
2023/01/31 13:08:16;;;;;;;1.65;0.73;;;;;;;;;;5075555;28;20075;-71
2023/01/31 13:10:46;;;;;;;2.08;0.80;;;;;;;;;;5075216;28;20060;-72
2023/01/31 13:13:18;;;;;;;2.85;1.45;;;;;;;;;;5074155;28;20139;-72
2023/01/31 13:15:49;;;;;;;0.88;0.60;;;;;;;;;;5068281;28;20118;-72
2023/01/31 13:18:18;;;;;;;1.38;0.88;;;;;;;;;;5072746;28;20040;-72
2023/01/31 13:20:49;;;;;;;1.55;1.27;;;;;;;;;;5068016;28;20413;-71
2023/01/31 13:23:20;;;;;;;1.20;0.50;;;;;;;;;;5070259;28;20036;-71
2023/01/31 13:25:52;;;;;;;1.25;1.15;;;;;;;;;;5070617;28;20064;-72
2023/01/31 13:28:23;;;;;;;0.60;0.60;;;;;;;;;;5074846;28;20058;-74
2023/01/31 13:30:54;;;;;;;1.75;1.45;;;;;;;;;;5069298;28;20136;-72
2023/01/31 13:33:26;;;;;;;1.52;1.05;;;;;;;;;;5072711;28;20128;-72
2023/01/31 13:36:00;;;;;;;1.95;1.05;;;;;;;;;;5074775;28;20540;-71
2023/01/31 13:38:31;;;;;;;1.38;1.13;;;;;;;;;;5068417;28;20041;-73
2023/01/31 13:41:01;;;;;;;2.42;0.90;;;;;;;;;;5070327;28;20056;-73
2023/01/31 13:43:31;;;;;;;0.95;0.95;;;;;;;;;;5068899;28;20044;-73
2023/01/31 13:46:01;;;;;;;1.02;0.85;;;;;;;;;;5070339;28;20095;-71
2023/01/31 13:48:33;;;;;;;2.22;1.98;;;;;;;;;;5067661;28;20052;-74
2023/01/31 13:51:03;;;;;;;2.20;1.27;;;;;;;;;;5064370;28;20048;-70
2023/01/31 13:53:34;;;;;;;0.95;0.45;;;;;;;;;;5074268;28;20076;-72
2023/01/31 13:56:04;;;;;;;0.65;0.60;;;;;;;;;;5075756;28;20040;-73
2023/01/31 13:58:34;;;;;;;1.38;1.05;;;;;;;;;;5069928;28;20079;-73
2023/01/31 14:01:05;;;;;;;1.52;1.17;;;;;;;;;;5072122;28;20078;-73
2023/01/31 14:04:05;;;;;;;0.80;0.77;;;;;;;;;;5067567;28;20512;-74
2023/01/31 14:06:52;;;;;;;1.50;1.13;;;;;;;;;;5069981;28;20070;-73
2023/01/31 14:09:26;;;;;;;2.70;1.70;;;;;;;;;;5069957;28;20094;-75
2023/01/31 14:11:56;;;;;;;2.15;1.20;;;;;;;;;;5072990;28;20499;-74
2023/01/31 14:14:40;;;;;;;4.57;0.85;;;;;;;;;;5076228;28;20049;-73
2023/01/31 14:17:11;;;;;;;1.40;0.98;;;;;;;;;;5062504;28;20045;-74
2023/01/31 14:19:55;;;;;;;1.63;0.65;;;;;;;;;;5069851;28;20052;-74
2023/01/31 14:22:24;;;;;;;1.40;1.02;;;;;;;;;;5063516;28;20448;-74
2023/01/31 14:24:58;;;;;;;2.42;0.98;;;;;;;;;;5078074;28;20044;-74
2023/01/31 14:27:29;;;;;;;7.60;2.90;;;;;;;;;;5076195;28;20102;-74
2023/01/31 14:29:59;;;;;;;1.17;1.05;;;;;;;;;;5067740;28;20045;-73
2023/01/31 14:32:31;;;;;;;1.08;0.95;;;;;;;;;;5064481;28;20115;-73
2023/01/31 14:35:01;;;;;;;1.35;1.27;;;;;;;;;;5059248;28;20147;-73
2023/01/31 14:37:34;;;;;;;1.38;0.60;;;;;;;;;;5076558;28;20055;-75
2023/01/31 14:40:18;;;;;;;1.02;0.82;;;;;;;;;;5070071;28;20092;-75
2023/01/31 14:42:57;;;;;;;0.40;0.40;;;;;;;;;;5074815;28;20052;-75
2023/01/31 14:45:34;;;;;;;1.40;0.60;;;;;;;;;;5074839;28;20041;-73
2023/01/31 14:48:15;;;;;;;0.73;0.73;;;;;;;;;;5069185;28;20459;-74
2023/01/31 14:51:02;;;;;;;1.25;0.98;;;;;;;;;;5066613;28;20036;-74
2023/01/31 14:53:50;;;;;;;2.53;1.25;;;;;;;;;;5066589;28;20057;-74
2023/01/31 14:56:27;;;;;;;2.30;0.98;;;;;;;;;;5072240;28;20050;-74
2023/01/31 14:58:56;;;;;;;1.95;1.38;;;;;;;;;;5063988;28;20470;-74
2023/01/31 15:01:32;;;;;;;1.85;1.02;;;;;;;;;;5065213;28;20335;-75
2023/01/31 15:04:02;;;;;;;2.50;1.00;;;;;;;;;;5064312;28;20478;-74
2023/01/31 15:06:34;;;;;;;0.55;0.55;;;;;;;;;;5066142;28;20162;-76
2023/01/31 15:09:26;;;;;;;1.63;0.75;;;;;;;;;;5058343;28;20095;-75
2023/01/31 15:11:57;;;;;;;0.68;0.55;;;;;;;;;;5067432;28;20102;-75
2023/01/31 15:14:28;;;;;;;1.27;0.38;;;;;;;;;;5061395;28;20489;-74